Time;durP1;ratioP1;P1;durP2;ratioP2;P2;SDS_P1;SDS_P2;PMS_P1;PMS_P2;Temp;Humidity;BMP_temperature;BMP_pressure;BME280_temperature;BME280_humidity;BME280_pressure;Samples;Min_cycle;Max_cycle;Signal;HPM_P1;HPM_P2
2022/07/19 00:01:38;;;;;;;4.40;4.00;;;;;;;;;;5034002;28;20477;-47
2022/07/19 00:04:04;;;;;;;5.93;4.23;;;;;;;;;;5034120;28;20418;-48
2022/07/19 00:06:30;;;;;;;6.47;4.00;;;;;;;;;;5033857;28;20403;-49
2022/07/19 00:08:56;;;;;;;4.10;3.50;;;;;;;;;;5033051;28;20474;-48
2022/07/19 00:11:22;;;;;;;3.90;3.47;;;;;;;;;;5033940;28;20411;-47
2022/07/19 00:13:48;;;;;;;4.77;4.37;;;;;;;;;;5033770;28;20402;-47
2022/07/19 00:16:14;;;;;;;6.00;4.57;;;;;;;;;;5033662;28;20410;-48
2022/07/19 00:18:40;;;;;;;4.00;3.53;;;;;;;;;;5033402;28;20428;-47
2022/07/19 00:21:06;;;;;;;3.93;3.53;;;;;;;;;;5033651;28;20434;-48
2022/07/19 00:23:32;;;;;;;8.50;4.27;;;;;;;;;;5033521;28;20456;-47
2022/07/19 00:25:58;;;;;;;4.73;3.63;;;;;;;;;;5033595;28;20404;-47
2022/07/19 00:28:24;;;;;;;4.30;3.90;;;;;;;;;;5033002;28;20515;-47
2022/07/19 00:30:50;;;;;;;5.90;4.27;;;;;;;;;;5033706;28;20397;-48
2022/07/19 00:33:17;;;;;;;6.70;4.57;;;;;;;;;;5033396;28;20401;-48
2022/07/19 00:35:43;;;;;;;10.40;4.00;;;;;;;;;;5033432;28;20431;-48
2022/07/19 00:38:10;;;;;;;7.57;3.80;;;;;;;;;;5033377;28;20489;-47
2022/07/19 00:40:37;;;;;;;7.60;4.00;;;;;;;;;;5033329;28;20412;-47
2022/07/19 00:43:05;;;;;;;4.27;3.80;;;;;;;;;;5033082;28;20410;-48
2022/07/19 00:45:31;;;;;;;4.07;3.77;;;;;;;;;;5033439;28;20857;-47
2022/07/19 00:47:57;;;;;;;4.33;3.80;;;;;;;;;;5033240;28;20953;-47
2022/07/19 00:50:23;;;;;;;5.70;4.77;;;;;;;;;;5032890;28;20462;-47
2022/07/19 00:52:50;;;;;;;5.97;4.10;;;;;;;;;;5032929;28;20407;-47
2022/07/19 00:55:18;;;;;;;4.07;3.67;;;;;;;;;;5033133;28;20414;-47
2022/07/19 00:57:45;;;;;;;3.77;3.40;;;;;;;;;;5032859;28;20398;-47
2022/07/19 01:00:12;;;;;;;5.67;3.90;;;;;;;;;;5033016;28;20414;-47
2022/07/19 01:02:38;;;;;;;3.80;3.50;;;;;;;;;;5032209;28;20496;-47
2022/07/19 01:05:04;;;;;;;6.27;3.80;;;;;;;;;;5032250;28;20421;-48
2022/07/19 01:07:30;;;;;;;3.80;3.50;;;;;;;;;;5035014;28;20419;-48
2022/07/19 01:09:57;;;;;;;7.50;4.10;;;;;;;;;;5033716;28;20540;-50
2022/07/19 01:12:23;;;;;;;4.40;4.03;;;;;;;;;;5033651;28;20438;-49
2022/07/19 01:14:49;;;;;;;3.70;3.40;;;;;;;;;;5033698;28;20427;-48
2022/07/19 01:17:15;;;;;;;4.03;3.63;;;;;;;;;;5034180;28;20969;-48
2022/07/19 01:19:45;;;;;;;11.90;4.10;;;;;;;;;;5032756;28;20801;-48
2022/07/19 01:22:11;;;;;;;4.30;3.63;;;;;;;;;;5033771;28;20434;-50
2022/07/19 01:24:37;;;;;;;4.27;3.87;;;;;;;;;;5033647;28;20413;-50
2022/07/19 01:27:03;;;;;;;4.10;3.70;;;;;;;;;;5033541;28;20484;-50
2022/07/19 01:29:29;;;;;;;6.07;4.20;;;;;;;;;;5033280;28;20469;-49
2022/07/19 01:31:54;;;;;;;4.30;3.90;;;;;;;;;;5033752;28;20772;-50
2022/07/19 01:34:20;;;;;;;5.67;3.60;;;;;;;;;;5033599;28;20405;-49
2022/07/19 01:36:46;;;;;;;4.47;4.07;;;;;;;;;;5033526;28;20408;-49
2022/07/19 01:39:14;;;;;;;5.33;4.07;;;;;;;;;;5033115;28;20439;-50
2022/07/19 01:41:40;;;;;;;6.47;3.43;;;;;;;;;;5034238;28;20409;-50
2022/07/19 01:44:06;;;;;;;6.50;3.83;;;;;;;;;;5033544;28;20407;-49
2022/07/19 01:46:32;;;;;;;10.20;3.53;;;;;;;;;;5033255;28;20410;-49
2022/07/19 01:48:58;;;;;;;5.17;3.77;;;;;;;;;;5032866;28;20458;-49
2022/07/19 01:51:24;;;;;;;7.03;3.60;;;;;;;;;;5033318;28;20456;-49
2022/07/19 01:53:51;;;;;;;5.13;3.20;;;;;;;;;;5033388;28;20866;-49
2022/07/19 01:56:17;;;;;;;4.00;3.70;;;;;;;;;;5033300;28;20414;-50
2022/07/19 01:58:43;;;;;;;3.53;3.23;;;;;;;;;;5033106;28;20460;-50
2022/07/19 02:01:09;;;;;;;4.20;3.90;;;;;;;;;;5033405;28;20494;-49
2022/07/19 02:03:35;;;;;;;4.07;3.77;;;;;;;;;;5033396;28;20893;-50
2022/07/19 02:06:01;;;;;;;3.90;3.60;;;;;;;;;;5032871;28;20494;-50
2022/07/19 02:08:27;;;;;;;3.67;3.47;;;;;;;;;;5032844;28;20429;-48
2022/07/19 02:10:53;;;;;;;4.50;4.10;;;;;;;;;;5033012;28;20452;-49
2022/07/19 02:13:19;;;;;;;3.83;3.57;;;;;;;;;;5031880;28;20408;-49
2022/07/19 02:15:45;;;;;;;6.30;3.77;;;;;;;;;;5033275;28;20398;-50
2022/07/19 02:18:11;;;;;;;4.53;4.13;;;;;;;;;;5033253;28;20400;-48
2022/07/19 02:20:37;;;;;;;5.00;4.47;;;;;;;;;;5033210;28;20398;-49
2022/07/19 02:23:03;;;;;;;5.47;3.80;;;;;;;;;;5033444;28;20547;-48
2022/07/19 02:25:29;;;;;;;4.83;3.80;;;;;;;;;;5033538;28;20425;-49
2022/07/19 02:27:55;;;;;;;4.40;4.00;;;;;;;;;;5033175;28;21046;-50
2022/07/19 02:30:21;;;;;;;7.30;4.40;;;;;;;;;;5032907;28;20480;-50
2022/07/19 02:32:47;;;;;;;6.83;3.70;;;;;;;;;;5036759;28;20397;-51
2022/07/19 02:35:13;;;;;;;4.90;3.67;;;;;;;;;;5037173;28;20398;-50
2022/07/19 02:37:40;;;;;;;4.07;3.73;;;;;;;;;;5037218;28;20437;-50
2022/07/19 02:40:07;;;;;;;13.50;5.40;;;;;;;;;;5036711;28;20409;-49
2022/07/19 02:42:33;;;;;;;4.03;3.63;;;;;;;;;;5037063;28;20484;-49
2022/07/19 02:44:59;;;;;;;7.30;3.93;;;;;;;;;;5036840;28;20509;-49
2022/07/19 02:47:25;;;;;;;5.80;4.17;;;;;;;;;;5036703;28;20408;-49
2022/07/19 02:49:51;;;;;;;4.73;3.90;;;;;;;;;;5036668;28;20635;-49
2022/07/19 02:52:17;;;;;;;4.47;4.07;;;;;;;;;;5036895;28;20406;-50
2022/07/19 02:54:43;;;;;;;5.60;3.80;;;;;;;;;;5036728;28;20774;-50
2022/07/19 02:57:09;;;;;;;6.40;4.47;;;;;;;;;;5036468;28;20416;-50
2022/07/19 02:59:35;;;;;;;6.57;4.30;;;;;;;;;;5036733;28;20430;-49
2022/07/19 03:02:01;;;;;;;4.53;3.93;;;;;;;;;;5036545;28;20487;-51
2022/07/19 03:04:27;;;;;;;7.13;4.57;;;;;;;;;;5036020;28;20437;-51
2022/07/19 03:06:53;;;;;;;5.00;4.13;;;;;;;;;;5036308;28;20380;-49
2022/07/19 03:09:19;;;;;;;4.27;3.97;;;;;;;;;;5035671;28;20544;-48
2022/07/19 03:11:45;;;;;;;6.43;3.80;;;;;;;;;;5036065;28;20404;-50
2022/07/19 03:14:11;;;;;;;6.33;4.30;;;;;;;;;;5036055;28;20410;-49
2022/07/19 03:16:37;;;;;;;4.73;3.97;;;;;;;;;;5035516;28;20463;-48
2022/07/19 03:19:03;;;;;;;7.80;4.57;;;;;;;;;;5035616;28;20512;-49
2022/07/19 03:21:29;;;;;;;6.57;4.00;;;;;;;;;;5035594;28;20418;-50
2022/07/19 03:23:55;;;;;;;4.77;3.90;;;;;;;;;;5035356;28;20384;-50
2022/07/19 03:26:21;;;;;;;5.03;4.53;;;;;;;;;;5035542;28;20939;-50
2022/07/19 03:28:47;;;;;;;4.80;4.33;;;;;;;;;;5034717;28;20460;-50
2022/07/19 03:31:13;;;;;;;4.13;3.73;;;;;;;;;;5035267;28;20376;-49
2022/07/19 03:33:39;;;;;;;5.23;4.13;;;;;;;;;;5035133;28;20838;-49
2022/07/19 03:36:05;;;;;;;4.67;4.20;;;;;;;;;;5035116;28;20406;-50
2022/07/19 03:38:31;;;;;;;4.50;4.10;;;;;;;;;;5034442;28;20447;-50
2022/07/19 03:40:57;;;;;;;3.80;3.50;;;;;;;;;;5034938;28;20924;-50
2022/07/19 03:43:23;;;;;;;4.60;4.07;;;;;;;;;;5034191;28;20732;-50
2022/07/19 03:45:50;;;;;;;4.97;4.23;;;;;;;;;;5035313;28;20398;-50
2022/07/19 03:48:17;;;;;;;6.17;3.70;;;;;;;;;;5034492;28;20517;-49
2022/07/19 03:50:43;;;;;;;6.70;3.90;;;;;;;;;;5034747;28;20846;-50
2022/07/19 03:53:09;;;;;;;4.80;4.30;;;;;;;;;;5034600;28;20822;-49
2022/07/19 03:55:35;;;;;;;5.27;4.73;;;;;;;;;;5034731;28;20384;-50
2022/07/19 03:58:01;;;;;;;7.90;4.30;;;;;;;;;;5033868;28;20806;-49
2022/07/19 04:00:27;;;;;;;5.97;4.20;;;;;;;;;;5033221;28;20972;-49
2022/07/19 04:02:53;;;;;;;4.40;3.87;;;;;;;;;;5034914;28;20436;-49
2022/07/19 04:05:19;;;;;;;4.77;4.07;;;;;;;;;;5039591;28;20420;-47
2022/07/19 04:07:45;;;;;;;6.00;4.67;;;;;;;;;;5033689;28;20412;-47
2022/07/19 04:10:11;;;;;;;4.30;3.90;;;;;;;;;;5033391;28;20464;-49
2022/07/19 04:12:37;;;;;;;4.90;4.40;;;;;;;;;;5034425;28;20452;-49
2022/07/19 04:15:03;;;;;;;5.57;4.33;;;;;;;;;;5034376;28;20796;-49
2022/07/19 04:17:29;;;;;;;6.67;3.93;;;;;;;;;;5034146;28;20959;-50
2022/07/19 04:19:55;;;;;;;8.10;4.03;;;;;;;;;;5033420;28;20504;-49
2022/07/19 04:22:23;;;;;;;4.23;3.60;;;;;;;;;;5033849;28;20444;-50
2022/07/19 04:24:50;;;;;;;5.73;4.43;;;;;;;;;;5033986;28;20425;-50
2022/07/19 04:27:15;;;;;;;5.30;4.17;;;;;;;;;;5033968;28;20424;-50
2022/07/19 04:29:41;;;;;;;4.37;3.63;;;;;;;;;;5033654;28;20525;-50
2022/07/19 04:32:07;;;;;;;7.13;4.03;;;;;;;;;;5033679;28;20410;-49
2022/07/19 04:34:33;;;;;;;4.70;3.90;;;;;;;;;;5033975;28;20420;-48
2022/07/19 04:36:59;;;;;;;6.83;5.30;;;;;;;;;;5033662;28;20769;-48
2022/07/19 04:39:25;;;;;;;10.40;4.90;;;;;;;;;;5033299;28;20487;-48
2022/07/19 04:41:51;;;;;;;5.73;4.40;;;;;;;;;;5033066;28;20495;-48
2022/07/19 04:44:17;;;;;;;5.87;4.33;;;;;;;;;;5032819;28;20508;-47
2022/07/19 04:46:43;;;;;;;6.07;4.10;;;;;;;;;;5044822;28;20819;-48
2022/07/19 04:49:09;;;;;;;5.33;4.83;;;;;;;;;;5046338;28;20457;-48
2022/07/19 04:51:35;;;;;;;5.30;4.37;;;;;;;;;;5032175;28;20436;-47
2022/07/19 04:54:01;;;;;;;5.47;4.93;;;;;;;;;;5032574;28;20420;-48
2022/07/19 04:56:27;;;;;;;4.97;4.47;;;;;;;;;;5032532;28;20848;-49
2022/07/19 04:58:53;;;;;;;4.60;4.20;;;;;;;;;;5035087;28;20415;-48
2022/07/19 05:01:19;;;;;;;6.47;5.27;;;;;;;;;;5031966;28;20418;-48
2022/07/19 05:03:45;;;;;;;8.40;4.60;;;;;;;;;;5032402;28;20416;-48
2022/07/19 05:06:11;;;;;;;4.20;3.80;;;;;;;;;;5032671;28;20489;-46
2022/07/19 05:08:37;;;;;;;6.47;4.20;;;;;;;;;;5031570;28;20474;-48
2022/07/19 05:11:03;;;;;;;4.90;3.90;;;;;;;;;;5031640;28;20432;-47
2022/07/19 05:13:29;;;;;;;4.10;3.70;;;;;;;;;;5032105;28;20514;-46
2022/07/19 05:15:55;;;;;;;6.60;4.20;;;;;;;;;;5032180;28;20422;-47
2022/07/19 05:18:21;;;;;;;6.40;3.80;;;;;;;;;;5031753;28;20836;-47
2022/07/19 05:20:47;;;;;;;4.20;3.80;;;;;;;;;;5031260;28;20484;-47
2022/07/19 05:23:13;;;;;;;5.13;4.57;;;;;;;;;;5031555;28;20426;-48
2022/07/19 05:25:39;;;;;;;4.50;3.90;;;;;;;;;;5031898;28;20445;-47
2022/07/19 05:28:05;;;;;;;5.37;4.20;;;;;;;;;;5032028;28;20475;-47
2022/07/19 05:30:31;;;;;;;5.10;3.67;;;;;;;;;;5031307;28;20470;-47
2022/07/19 05:32:57;;;;;;;4.93;4.47;;;;;;;;;;5031731;28;20917;-47
2022/07/19 05:35:23;;;;;;;9.20;4.47;;;;;;;;;;5031474;28;20515;-46
2022/07/19 05:37:49;;;;;;;4.40;3.93;;;;;;;;;;5031774;28;20450;-47
2022/07/19 05:40:15;;;;;;;3.60;3.30;;;;;;;;;;5031553;28;20443;-47
2022/07/19 05:42:41;;;;;;;4.60;3.50;;;;;;;;;;5031702;28;20438;-47
2022/07/19 05:45:07;;;;;;;6.60;4.10;;;;;;;;;;5030663;28;20506;-47
2022/07/19 05:47:33;;;;;;;8.30;4.53;;;;;;;;;;5031540;28;20444;-48
2022/07/19 05:49:59;;;;;;;5.27;3.90;;;;;;;;;;5031091;28;20463;-47
2022/07/19 05:52:26;;;;;;;4.00;3.60;;;;;;;;;;5031650;28;20906;-48
2022/07/19 05:54:52;;;;;;;3.60;3.23;;;;;;;;;;5031389;28;20928;-48
2022/07/19 05:57:17;;;;;;;5.53;4.30;;;;;;;;;;5043274;28;20405;-48
2022/07/19 05:59:43;;;;;;;3.90;3.60;;;;;;;;;;5049691;28;20810;-49
2022/07/19 06:02:09;;;;;;;3.83;3.53;;;;;;;;;;5031184;28;20443;-48
2022/07/19 06:04:35;;;;;;;4.87;3.40;;;;;;;;;;5031362;28;20421;-49
2022/07/19 06:07:01;;;;;;;4.03;3.37;;;;;;;;;;5031430;28;20422;-49
2022/07/19 06:09:27;;;;;;;5.40;3.60;;;;;;;;;;5030942;28;20885;-48
2022/07/19 06:11:54;;;;;;;4.13;3.70;;;;;;;;;;5031685;28;20423;-48
2022/07/19 06:14:20;;;;;;;4.10;3.70;;;;;;;;;;5031523;28;20455;-49
2022/07/19 06:16:46;;;;;;;3.67;3.20;;;;;;;;;;5031561;28;20515;-49
2022/07/19 06:19:12;;;;;;;4.10;3.60;;;;;;;;;;5030839;28;20548;-48
2022/07/19 06:21:38;;;;;;;4.47;3.87;;;;;;;;;;5031574;28;20426;-48
2022/07/19 06:24:04;;;;;;;3.93;3.47;;;;;;;;;;5031325;28;20428;-49
2022/07/19 06:26:31;;;;;;;4.50;3.23;;;;;;;;;;5031245;28;20414;-48
2022/07/19 06:28:58;;;;;;;11.27;3.77;;;;;;;;;;5030726;28;20557;-48
2022/07/19 06:31:24;;;;;;;3.70;3.40;;;;;;;;;;5031158;28;20456;-49
2022/07/19 06:33:50;;;;;;;5.40;3.27;;;;;;;;;;5031313;28;20796;-48
2022/07/19 06:36:17;;;;;;;3.77;3.47;;;;;;;;;;5031278;28;20501;-50
2022/07/19 06:38:43;;;;;;;4.10;3.50;;;;;;;;;;5030640;28;20963;-50
2022/07/19 06:41:10;;;;;;;4.43;3.27;;;;;;;;;;5031179;28;20418;-48
2022/07/19 06:43:36;;;;;;;7.53;4.00;;;;;;;;;;5031314;28;20978;-49
2022/07/19 06:46:05;;;;;;;5.00;3.53;;;;;;;;;;5031048;28;20490;-48
2022/07/19 06:48:31;;;;;;;12.70;7.70;;;;;;;;;;5030539;28;20535;-49
2022/07/19 06:50:57;;;;;;;5.47;3.03;;;;;;;;;;5031235;28;20557;-48
2022/07/19 06:53:23;;;;;;;6.60;3.40;;;;;;;;;;5030949;28;20908;-49
2022/07/19 06:55:49;;;;;;;4.13;3.23;;;;;;;;;;5030552;28;20433;-49
2022/07/19 06:58:16;;;;;;;4.33;3.43;;;;;;;;;;5030103;28;20436;-50
2022/07/19 07:00:42;;;;;;;6.00;3.83;;;;;;;;;;5030279;28;20915;-49
2022/07/19 07:03:08;;;;;;;3.47;3.17;;;;;;;;;;5031107;28;20464;-49
2022/07/19 07:05:34;;;;;;;4.60;3.40;;;;;;;;;;5030216;28;20983;-49
2022/07/19 07:08:00;;;;;;;4.10;3.40;;;;;;;;;;5030757;28;20534;-50
2022/07/19 07:10:26;;;;;;;8.20;3.07;;;;;;;;;;5030123;28;20910;-49
2022/07/19 07:12:52;;;;;;;5.90;3.07;;;;;;;;;;5030839;28;20429;-48
2022/07/19 07:15:18;;;;;;;3.77;2.83;;;;;;;;;;5030821;28;20418;-50
2022/07/19 07:17:44;;;;;;;6.43;4.20;;;;;;;;;;5031328;28;20996;-49
2022/07/19 07:20:10;;;;;;;7.73;3.87;;;;;;;;;;5034010;28;20480;-49
2022/07/19 07:22:37;;;;;;;4.00;3.47;;;;;;;;;;5047202;28;20453;-49
2022/07/19 07:25:03;;;;;;;4.03;3.30;;;;;;;;;;5034316;28;20510;-49
2022/07/19 07:27:29;;;;;;;6.23;3.20;;;;;;;;;;5033954;28;20422;-50
2022/07/19 07:29:55;;;;;;;5.93;3.00;;;;;;;;;;5033749;28;20457;-49
2022/07/19 07:32:21;;;;;;;5.20;3.43;;;;;;;;;;5034765;28;20407;-49
2022/07/19 07:34:47;;;;;;;3.90;3.50;;;;;;;;;;5033854;28;20793;-50
2022/07/19 07:37:13;;;;;;;3.80;3.17;;;;;;;;;;5034162;28;20964;-50
2022/07/19 07:39:39;;;;;;;3.70;3.40;;;;;;;;;;5038684;28;20933;-49
2022/07/19 07:42:05;;;;;;;4.00;3.50;;;;;;;;;;5033907;28;20422;-49
2022/07/19 07:44:32;;;;;;;3.20;2.90;;;;;;;;;;5033421;28;20429;-49
2022/07/19 07:46:58;;;;;;;3.47;3.17;;;;;;;;;;5034299;28;20485;-49
2022/07/19 07:49:24;;;;;;;4.20;3.20;;;;;;;;;;5033592;28;20969;-49
2022/07/19 07:51:50;;;;;;;5.60;3.60;;;;;;;;;;5034183;28;20402;-49
2022/07/19 07:54:16;;;;;;;4.07;3.23;;;;;;;;;;5033770;28;20414;-50
2022/07/19 07:56:42;;;;;;;6.60;3.70;;;;;;;;;;5033571;28;20417;-50
2022/07/19 07:59:08;;;;;;;4.43;3.07;;;;;;;;;;5033476;28;20512;-50
2022/07/19 08:01:34;;;;;;;3.67;3.37;;;;;;;;;;5033673;28;20479;-49
2022/07/19 08:04:00;;;;;;;3.93;3.17;;;;;;;;;;5052262;28;20791;-51
2022/07/19 08:06:26;;;;;;;4.07;3.30;;;;;;;;;;5050519;28;20410;-49
2022/07/19 08:08:52;;;;;;;4.33;3.53;;;;;;;;;;5033229;28;20850;-50
2022/07/19 08:11:18;;;;;;;8.20;3.53;;;;;;;;;;5033465;28;20422;-49
2022/07/19 08:13:44;;;;;;;4.97;3.57;;;;;;;;;;5033275;28;20414;-50
2022/07/19 08:16:10;;;;;;;4.63;3.60;;;;;;;;;;5033712;28;20473;-50
2022/07/19 08:18:36;;;;;;;4.47;3.10;;;;;;;;;;5032986;28;20449;-48
2022/07/19 08:21:02;;;;;;;4.47;3.13;;;;;;;;;;5032777;28;20418;-49
2022/07/19 08:23:28;;;;;;;2.80;2.60;;;;;;;;;;5033305;28;20403;-48
2022/07/19 08:25:54;;;;;;;4.77;2.90;;;;;;;;;;5043868;28;20402;-48
2022/07/19 08:28:20;;;;;;;4.07;2.93;;;;;;;;;;5051928;28;20222;-48
2022/07/19 08:30:46;;;;;;;3.30;3.00;;;;;;;;;;5032645;28;20207;-48
2022/07/19 08:33:12;;;;;;;2.60;2.40;;;;;;;;;;5032212;28;20513;-49
2022/07/19 08:35:38;;;;;;;3.03;2.83;;;;;;;;;;5032857;28;20176;-49
2022/07/19 08:38:04;;;;;;;2.60;2.40;;;;;;;;;;5032566;28;20450;-49
2022/07/19 08:40:33;;;;;;;4.17;2.80;;;;;;;;;;5032525;28;20190;-50
2022/07/19 08:42:59;;;;;;;3.03;2.33;;;;;;;;;;5032936;28;20429;-48
2022/07/19 08:45:26;;;;;;;2.43;2.17;;;;;;;;;;5032399;28;20422;-48
2022/07/19 08:47:52;;;;;;;7.27;2.57;;;;;;;;;;5032453;28;20528;-49
2022/07/19 08:50:19;;;;;;;2.90;2.30;;;;;;;;;;5032577;28;20464;-48
2022/07/19 08:52:45;;;;;;;3.07;2.70;;;;;;;;;;5032004;28;20425;-48
2022/07/19 08:55:11;;;;;;;2.63;2.40;;;;;;;;;;5032117;28;20793;-49
2022/07/19 09:00:22;;;;;;;3.33;2.13;;;;;;;;;;5032720;28;20456;-48
2022/07/19 09:02:52;;;;;;;2.90;2.17;;;;;;;;;;5032266;28;20808;-49
2022/07/19 09:05:18;;;;;;;2.40;2.23;;;;;;;;;;5032816;28;20657;-48
2022/07/19 09:07:59;;;;;;;1.43;1.33;;;;;;;;;;5032644;28;20854;-48
2022/07/19 09:10:25;;;;;;;1.93;1.83;;;;;;;;;;5032465;28;20476;-50
2022/07/19 09:12:58;;;;;;;2.00;1.90;;;;;;;;;;5032832;28;20435;-48
2022/07/19 09:15:43;;;;;;;1.97;1.73;;;;;;;;;;5032576;28;20780;-49
2022/07/19 09:18:14;;;;;;;4.13;1.90;;;;;;;;;;5032273;28;20740;-48
2022/07/19 09:20:40;;;;;;;1.77;1.67;;;;;;;;;;5032492;28;20402;-49
2022/07/19 09:23:07;;;;;;;2.10;2.00;;;;;;;;;;5032410;28;20505;-48
2022/07/19 09:25:37;;;;;;;2.10;1.90;;;;;;;;;;5032714;28;20402;-48
2022/07/19 09:28:04;;;;;;;2.30;2.10;;;;;;;;;;5032332;28;20417;-49
2022/07/19 09:30:40;;;;;;;1.73;1.63;;;;;;;;;;5031899;28;20457;-48
2022/07/19 09:33:11;;;;;;;2.00;1.90;;;;;;;;;;5032377;28;20405;-49
2022/07/19 09:35:38;;;;;;;1.90;1.80;;;;;;;;;;5032218;28;20424;-49
2022/07/19 09:38:23;;;;;;;2.10;1.90;;;;;;;;;;5031971;28;20933;-48
2022/07/19 09:40:49;;;;;;;2.20;1.90;;;;;;;;;;5031518;28;20452;-49
2022/07/19 09:43:16;;;;;;;1.70;1.60;;;;;;;;;;5032061;28;20920;-50
2022/07/19 09:45:42;;;;;;;4.20;2.10;;;;;;;;;;5032102;28;20390;-49
2022/07/19 09:48:08;;;;;;;2.20;2.00;;;;;;;;;;5032265;28;20472;-49
2022/07/19 09:50:34;;;;;;;4.20;2.50;;;;;;;;;;5031811;28;20206;-49
2022/07/19 09:53:05;;;;;;;3.80;1.67;;;;;;;;;;5032007;28;20398;-49
2022/07/19 09:55:31;;;;;;;2.70;2.17;;;;;;;;;;5031966;28;20169;-49
2022/07/19 09:57:57;;;;;;;2.60;1.53;;;;;;;;;;5031768;28;20429;-49
2022/07/19 10:00:25;;;;;;;1.77;1.67;;;;;;;;;;5031635;28;21008;-48
2022/07/19 10:02:53;;;;;;;2.23;1.90;;;;;;;;;;5031861;28;20913;-48
2022/07/19 10:05:20;;;;;;;2.23;1.50;;;;;;;;;;5031852;28;20481;-49
2022/07/19 10:07:46;;;;;;;1.80;1.70;;;;;;;;;;5031730;28;20496;-49
2022/07/19 10:10:14;;;;;;;2.43;2.23;;;;;;;;;;5031291;28;20445;-48
2022/07/19 10:12:41;;;;;;;1.77;1.40;;;;;;;;;;5031738;28;20409;-48
2022/07/19 10:15:08;;;;;;;1.93;1.53;;;;;;;;;;5031853;28;20425;-48
2022/07/19 10:17:44;;;;;;;3.13;1.50;;;;;;;;;;5031173;28;20421;-48
2022/07/19 10:20:10;;;;;;;3.20;2.17;;;;;;;;;;5030564;28;20390;-48
2022/07/19 10:22:39;;;;;;;1.70;1.53;;;;;;;;;;5030052;28;20460;-49
2022/07/19 10:25:05;;;;;;;2.00;1.90;;;;;;;;;;5030957;28;20937;-49
2022/07/19 10:27:31;;;;;;;4.10;2.00;;;;;;;;;;5031655;28;20437;-49
2022/07/19 10:29:59;;;;;;;1.60;1.40;;;;;;;;;;5030860;28;20194;-48
2022/07/19 10:32:29;;;;;;;2.70;1.80;;;;;;;;;;5031667;28;20466;-48
2022/07/19 10:35:18;;;;;;;2.10;1.60;;;;;;;;;;5031630;28;20413;-49
2022/07/19 10:37:45;;;;;;;3.90;1.77;;;;;;;;;;5031387;28;20434;-48
2022/07/19 10:40:11;;;;;;;1.83;1.73;;;;;;;;;;5032009;28;20404;-49
2022/07/19 10:42:37;;;;;;;1.93;1.73;;;;;;;;;;5031593;28;20405;-49
2022/07/19 10:45:03;;;;;;;3.07;2.20;;;;;;;;;;5031449;28;20409;-49
2022/07/19 10:47:34;;;;;;;2.63;1.80;;;;;;;;;;5031457;28;20250;-49
2022/07/19 10:50:14;;;;;;;3.03;1.70;;;;;;;;;;5031144;28;20271;-49
2022/07/19 10:52:42;;;;;;;2.37;2.27;;;;;;;;;;5033107;28;20390;-49
2022/07/19 10:55:18;;;;;;;2.00;1.63;;;;;;;;;;5035221;28;20913;-49
2022/07/19 10:58:07;;;;;;;8.00;1.70;;;;;;;;;;5035202;28;20475;-49
2022/07/19 11:00:47;;;;;;;2.47;1.67;;;;;;;;;;5032108;28;20405;-49
2022/07/19 11:03:22;;;;;;;2.33;2.13;;;;;;;;;;5035516;28;20402;-49
2022/07/19 11:05:48;;;;;;;1.77;1.40;;;;;;;;;;5035080;28;21062;-49
2022/07/19 11:08:14;;;;;;;1.80;1.70;;;;;;;;;;5034776;28;20432;-49
2022/07/19 11:10:40;;;;;;;1.80;1.70;;;;;;;;;;5034975;28;20202;-50
2022/07/19 11:13:07;;;;;;;3.40;1.87;;;;;;;;;;5034988;28;20249;-49
2022/07/19 11:15:33;;;;;;;2.10;1.87;;;;;;;;;;5035031;28;20170;-49
2022/07/19 11:18:04;;;;;;;2.57;1.60;;;;;;;;;;5034235;28;20430;-49
2022/07/19 11:20:31;;;;;;;2.43;1.73;;;;;;;;;;5034671;28;20506;-49
2022/07/19 11:22:58;;;;;;;2.40;2.20;;;;;;;;;;5033505;28;20416;-48
2022/07/19 11:25:25;;;;;;;1.73;1.60;;;;;;;;;;5034772;28;20481;-48
2022/07/19 11:27:51;;;;;;;2.07;1.43;;;;;;;;;;5035006;28;20480;-49
2022/07/19 11:30:20;;;;;;;1.97;1.73;;;;;;;;;;5034427;28;20544;-48
2022/07/19 11:32:51;;;;;;;4.00;1.60;;;;;;;;;;5034585;28;20492;-49
2022/07/19 11:35:17;;;;;;;2.03;1.93;;;;;;;;;;5034579;28;20481;-49
2022/07/19 11:37:43;;;;;;;2.30;1.73;;;;;;;;;;5034752;28;20524;-49
2022/07/19 11:40:11;;;;;;;2.67;1.90;;;;;;;;;;5034235;28;20179;-49
2022/07/19 11:42:40;;;;;;;2.53;1.90;;;;;;;;;;5034375;28;20408;-48
2022/07/19 11:45:14;;;;;;;2.97;1.90;;;;;;;;;;5034470;28;20402;-49
2022/07/19 11:47:47;;;;;;;2.13;1.93;;;;;;;;;;5034361;28;20467;-48
2022/07/19 11:50:14;;;;;;;2.47;1.60;;;;;;;;;;5034246;28;20551;-49
2022/07/19 11:53:09;;;;;;;3.60;1.87;;;;;;;;;;5038330;28;20471;-48
2022/07/19 11:55:37;;;;;;;1.73;1.50;;;;;;;;;;5024813;28;20779;-49
2022/07/19 11:58:07;;;;;;;1.93;1.60;;;;;;;;;;5032417;28;20428;-49
2022/07/19 12:00:33;;;;;;;2.13;1.80;;;;;;;;;;5033986;28;20398;-49
2022/07/19 12:03:08;;;;;;;1.70;1.60;;;;;;;;;;5033100;28;20401;-49
2022/07/19 12:05:36;;;;;;;1.80;1.70;;;;;;;;;;5033560;28;20402;-48
2022/07/19 12:08:02;;;;;;;1.80;1.70;;;;;;;;;;5033972;28;20937;-49
2022/07/19 12:10:39;;;;;;;1.70;1.60;;;;;;;;;;5033677;28;20515;-49
2022/07/19 12:13:07;;;;;;;1.97;1.80;;;;;;;;;;5033935;28;20405;-48
2022/07/19 12:16:02;;;;;;;2.00;1.80;;;;;;;;;;5033915;28;20494;-48
2022/07/19 12:18:43;;;;;;;1.60;1.50;;;;;;;;;;5024597;28;20437;-49
2022/07/19 12:21:15;;;;;;;2.00;1.90;;;;;;;;;;5037577;28;20829;-49
2022/07/19 12:23:41;;;;;;;2.40;1.60;;;;;;;;;;5033704;28;20402;-49
2022/07/19 12:26:07;;;;;;;2.20;1.97;;;;;;;;;;5032011;28;20900;-49
2022/07/19 12:28:33;;;;;;;2.20;1.60;;;;;;;;;;5031576;28;20265;-50
2022/07/19 12:31:03;;;;;;;1.90;1.80;;;;;;;;;;5032231;28;20856;-48
2022/07/19 12:33:29;;;;;;;1.77;1.67;;;;;;;;;;5033427;28;20247;-50
2022/07/19 12:35:55;;;;;;;1.97;1.87;;;;;;;;;;5033375;28;20480;-48
2022/07/19 12:38:27;;;;;;;1.70;1.60;;;;;;;;;;5033150;28;20285;-48
2022/07/19 12:41:04;;;;;;;2.27;1.80;;;;;;;;;;5033332;28;20171;-48
2022/07/19 12:43:30;;;;;;;1.97;1.87;;;;;;;;;;5033401;28;20427;-49
2022/07/19 12:46:01;;;;;;;3.87;2.00;;;;;;;;;;5033259;28;20401;-49
2022/07/19 12:48:27;;;;;;;2.57;2.40;;;;;;;;;;5032957;28;20222;-48
2022/07/19 12:50:53;;;;;;;8.33;2.27;;;;;;;;;;5033049;28;20457;-49
2022/07/19 12:53:20;;;;;;;4.43;2.30;;;;;;;;;;5032961;28;20447;-48
2022/07/19 12:55:47;;;;;;;2.00;1.90;;;;;;;;;;5033085;28;20716;-49
2022/07/19 12:58:14;;;;;;;2.10;1.87;;;;;;;;;;5032707;28;20422;-49
2022/07/19 13:00:44;;;;;;;3.53;2.10;;;;;;;;;;5032956;28;20405;-49
2022/07/19 13:03:10;;;;;;;2.07;1.90;;;;;;;;;;5032894;28;20398;-49
2022/07/19 13:05:36;;;;;;;1.50;1.40;;;;;;;;;;5032820;28;20459;-49
2022/07/19 13:08:02;;;;;;;2.73;2.30;;;;;;;;;;5032645;28;20732;-48
2022/07/19 13:10:29;;;;;;;2.53;1.70;;;;;;;;;;5032457;28;20202;-48
2022/07/19 13:12:55;;;;;;;1.80;1.70;;;;;;;;;;5032747;28;20448;-49
2022/07/19 13:15:21;;;;;;;1.57;1.47;;;;;;;;;;5032105;28;20456;-49
2022/07/19 13:17:47;;;;;;;1.80;1.70;;;;;;;;;;5031887;28;20756;-49
2022/07/19 13:20:14;;;;;;;3.17;2.17;;;;;;;;;;5032392;28;20472;-48
2022/07/19 13:22:40;;;;;;;2.10;2.00;;;;;;;;;;5032565;28;20397;-49
2022/07/19 13:25:07;;;;;;;1.67;1.57;;;;;;;;;;5032532;28;20401;-48
2022/07/19 13:27:33;;;;;;;1.83;1.73;;;;;;;;;;5032426;28;20417;-49
2022/07/19 13:29:59;;;;;;;2.00;1.90;;;;;;;;;;5031978;28;20445;-48
2022/07/19 13:32:25;;;;;;;3.00;1.67;;;;;;;;;;5032581;28;20174;-48
2022/07/19 13:34:51;;;;;;;1.90;1.80;;;;;;;;;;5032368;28;20778;-49
2022/07/19 13:37:17;;;;;;;1.70;1.60;;;;;;;;;;5032299;28;20406;-49
2022/07/19 13:39:43;;;;;;;6.20;1.80;;;;;;;;;;5032035;28;20243;-48
2022/07/19 13:42:09;;;;;;;1.50;1.40;;;;;;;;;;5032323;28;20971;-49
2022/07/19 13:44:36;;;;;;;3.53;2.00;;;;;;;;;;5032175;28;20393;-49
2022/07/19 13:47:02;;;;;;;1.90;1.70;;;;;;;;;;5032141;28;20195;-48
2022/07/19 13:49:27;;;;;;;1.60;1.50;;;;;;;;;;5031741;28;20895;-48
2022/07/19 13:51:54;;;;;;;2.27;1.93;;;;;;;;;;5032153;28;20422;-48
2022/07/19 13:54:20;;;;;;;2.60;1.80;;;;;;;;;;5032108;28;20269;-48
2022/07/19 13:56:46;;;;;;;3.90;1.70;;;;;;;;;;5032137;28;20389;-48
2022/07/19 13:59:12;;;;;;;2.23;2.13;;;;;;;;;;5031499;28;20426;-48
2022/07/19 14:01:38;;;;;;;6.37;1.93;;;;;;;;;;5031984;28;20179;-48
2022/07/19 14:04:04;;;;;;;1.70;1.60;;;;;;;;;;5031929;28;20402;-48
2022/07/19 14:06:30;;;;;;;2.10;1.70;;;;;;;;;;5031986;28;20394;-48
2022/07/19 14:08:56;;;;;;;1.93;1.83;;;;;;;;;;5033864;28;20436;-49
2022/07/19 14:11:22;;;;;;;2.27;2.10;;;;;;;;;;5031745;28;20406;-49
2022/07/19 14:13:48;;;;;;;1.30;1.20;;;;;;;;;;5031714;28;20171;-49
2022/07/19 14:16:14;;;;;;;1.67;1.57;;;;;;;;;;5051560;28;20170;-48
2022/07/19 14:18:40;;;;;;;1.80;1.70;;;;;;;;;;5051264;28;20178;-48
2022/07/19 14:21:06;;;;;;;1.30;1.20;;;;;;;;;;5051550;28;20673;-48
2022/07/19 14:23:32;;;;;;;1.30;1.20;;;;;;;;;;5051632;28;20197;-48
2022/07/19 14:25:58;;;;;;;2.10;1.90;;;;;;;;;;5051677;28;20185;-48
2022/07/19 14:28:24;;;;;;;1.60;1.50;;;;;;;;;;5054667;28;20467;-49
2022/07/19 14:30:50;;;;;;;1.43;1.33;;;;;;;;;;5055847;28;20500;-50
2022/07/19 14:33:16;;;;;;;1.70;1.60;;;;;;;;;;5055908;28;20170;-49
2022/07/19 14:35:42;;;;;;;1.70;1.60;;;;;;;;;;5050606;28;20460;-49
2022/07/19 14:38:08;;;;;;;1.60;1.50;;;;;;;;;;5034284;28;20884;-49
2022/07/19 14:40:34;;;;;;;1.60;1.50;;;;;;;;;;5035307;28;20181;-50
2022/07/19 14:43:00;;;;;;;2.07;1.70;;;;;;;;;;5035989;28;20178;-50
2022/07/19 14:45:26;;;;;;;2.90;1.57;;;;;;;;;;5035593;28;20401;-50